Date,TemperatureHighF,TemperatureAvgF,TemperatureLowF,DewpointHighF,DewpointAvgF,DewpointLowF,HumidityHigh,HumidityAvg,HumidityLow,PressureMaxIn,PressureMinIn,WindSpeedMaxMPH,WindSpeedAvgMPH,GustSpeedMaxMPH,PrecipitationSumIn
2013-6-1,83.6,72.3,63.5,65.9,61.4,57.2,96,72,41,29.99,29.88,2,1,15,0.00
2013-6-2,78.2,68.6,64.4,66.3,63.5,60.2,98,84,65,29.89,29.78,2,0,13,1.90
2013-6-3,78.8,71.8,65.6,68.3,65.7,61.8,94,82,61,29.83,29.71,1,0,8,0.07
2013-6-4,73.7,69.7,62.6,63.1,61.1,59.6,90,74,64,29.99,29.93,1,0,6,0.00
2013-6-5,66.2,64.6,63.1,60.2,59.8,59.2,89,85,81,29.98,29.92,1,0,5,0.00
2013-6-6,64.9,64.2,63.3,64.3,63.6,62.7,98,98,98,29.73,29.70,0,0,2,1.49
2013-6-7,74.3,69.7,64.6,68.9,66.6,62.8,95,90,79,29.71,29.52,1,0,7,0.27
2013-6-8,79.0,68.7,59.2,64.2,61.0,57.4,96,79,50,29.97,29.71,1,0,9,0.23
2013-6-9,84.8,71.7,61.4,69.2,64.4,60.1,97,80,48,30.04,29.92,2,0,16,0.19
2013-6-10,78.1,71.6,66.1,71.1,67.4,64.4,95,87,73,29.85,29.74,2,0,17,0.99
2013-6-11,81.3,74.9,67.2,63.1,61.4,60.0,82,64,50,29.85,29.78,0,0,8,0.02
2013-6-12,88.6,83.4,75.1,74.7,72.4,70.5,87,70,57,29.76,29.73,1,0,10,0.00
2013-6-13,84.8,69.8,67.2,68.4,61.4,53.7,81,75,58,29.64,29.47,2,0,12,0.01
2013-6-14,77.1,67.3,57.0,58.2,54.0,51.3,85,64,44,29.92,29.64,3,0,14,0.00
2013-6-15,81.3,69.1,55.2,60.9,55.6,51.4,88,65,41,30.02,29.91,1,0,10,0.00
2013-6-16,82.8,72.3,62.5,66.7,62.1,58.2,88,72,52,29.99,29.87,2,0,15,0.00
2013-6-17,76.8,73.8,70.1,67.9,66.8,65.2,88,79,68,29.83,29.81,0,0,4,0.03
2013-6-18,69.2,67.5,64.9,67.1,65.6,63.7,96,94,90,29.78,29.69,0,0,3,0.72
2013-6-19,77.1,71.8,65.7,64.8,63.5,62.1,90,76,60,29.99,29.91,1,0,7,0.00
2013-6-21,78.8,69.5,60.6,61.8,58.5,55.5,85,70,52,30.12,30.09,1,0,5,0.00
2013-6-22,80.7,68.8,59.5,67.5,62.1,54.6,95,80,59,30.14,30.00,0,0,5,0.00
2013-6-23,85.3,74.0,63.0,69.0,65.1,61.1,97,76,45,30.09,29.99,1,0,10,0.00
2013-6-24,84.0,77.2,71.5,71.4,68.3,66.7,85,74,59,29.98,29.94,2,0,13,0.00
2013-6-25,86.3,77.7,72.3,70.4,68.1,66.7,83,73,55,29.90,29.86,1,0,9,0.00
2013-6-26,68.2,67.1,65.9,65.2,64.7,64.3,95,92,88,29.83,29.80,0,0,4,0.03
2013-6-28,78.1,74.1,67.9,69.6,67.4,64.1,89,80,72,29.53,29.46,1,0,9,0.05
2013-6-29,83.2,73.4,65.4,67.8,65.5,62.7,97,78,53,29.58,29.47,2,0,11,0.00
2013-6-30,82.8,72.9,67.9,70.8,67.3,65.1,96,84,59,29.72,29.57,2,0,10,0.04